Time;durP1;ratioP1;P1;durP2;ratioP2;P2;SDS_P1;SDS_P2;PMS_P1;PMS_P2;Temp;Humidity;BMP_temperature;BMP_pressure;BME280_temperature;BME280_humidity;BME280_pressure;Samples;Min_cycle;Max_cycle;Signal;HPM_P1;HPM_P2
2022/04/30 00:00:10;;;;;;;2.90;1.70;;;;;;;19.52;57.65;100904.16;5092540;28;20200;-59
2022/04/30 00:02:35;;;;;;;3.57;1.53;;;;;;;19.50;57.60;100902.84;5092028;28;20186;-60
2022/04/30 00:05:01;;;;;;;2.27;1.37;;;;;;;19.51;57.69;100895.94;5092368;28;20218;-60
2022/04/30 00:07:26;;;;;;;2.53;1.50;;;;;;;19.51;57.76;100904.53;5092000;28;20226;-60
2022/04/30 00:09:52;;;;;;;2.30;1.23;;;;;;;19.53;57.64;100890.66;5092283;28;20503;-60
2022/04/30 00:12:18;;;;;;;2.90;1.67;;;;;;;19.50;57.89;100903.69;5092360;28;20182;-60
2022/04/30 00:14:44;;;;;;;2.67;1.10;;;;;;;19.49;57.69;100896.31;5091960;28;20178;-60
2022/04/30 00:17:10;;;;;;;2.10;1.33;;;;;;;19.49;57.63;100901.19;5091575;28;20170;-60
2022/04/30 00:19:35;;;;;;;2.67;1.30;;;;;;;19.49;58.01;100899.19;5092107;28;20424;-60
2022/04/30 00:22:01;;;;;;;2.70;1.27;;;;;;;19.51;57.84;100908.22;5072980;28;20191;-60
2022/04/30 00:24:26;;;;;;;2.80;1.50;;;;;;;19.51;57.78;100905.34;5071869;28;20308;-60
2022/04/30 00:26:52;;;;;;;2.80;1.33;;;;;;;19.49;57.82;100907.78;5071614;28;20214;-60
2022/04/30 00:29:18;;;;;;;2.10;1.20;;;;;;;19.50;57.74;100912.28;5081208;28;20230;-60
2022/04/30 00:31:43;;;;;;;2.20;1.30;;;;;;;19.50;57.96;100905.72;5091643;28;20428;-59
2022/04/30 00:34:09;;;;;;;3.13;1.60;;;;;;;19.48;58.03;100914.72;5092387;28;20166;-60
2022/04/30 00:36:35;;;;;;;2.77;1.30;;;;;;;19.50;58.11;100915.16;5091660;28;20274;-60
2022/04/30 00:39:00;;;;;;;2.37;1.33;;;;;;;19.50;57.68;100915.16;5091865;28;20201;-59
2022/04/30 00:41:26;;;;;;;2.30;1.43;;;;;;;19.50;57.80;100914.31;5091775;28;20531;-60
2022/04/30 00:43:53;;;;;;;2.73;1.40;;;;;;;19.50;57.71;100902.84;5091766;28;20644;-60
2022/04/30 00:46:19;;;;;;;2.67;1.20;;;;;;;19.50;57.74;100900.84;5091333;28;20285;-59
2022/04/30 00:48:45;;;;;;;3.50;1.40;;;;;;;19.50;57.82;100895.09;5090827;28;20449;-60
2022/04/30 00:51:12;;;;;;;2.70;1.50;;;;;;;19.49;57.75;100899.19;5091220;28;20879;-59
2022/04/30 00:53:41;;;;;;;3.00;1.50;;;;;;;19.49;57.75;100902.03;5091862;28;20175;-59
2022/04/30 00:56:11;;;;;;;2.47;1.37;;;;;;;19.50;57.74;100894.25;5091657;28;20435;-59
2022/04/30 00:58:38;;;;;;;2.60;1.43;;;;;;;19.49;57.97;100904.91;5091539;28;20563;-60
2022/04/30 01:01:04;;;;;;;2.13;1.20;;;;;;;19.48;57.72;100897.53;5091501;28;20444;-59
2022/04/30 01:03:29;;;;;;;5.20;1.50;;;;;;;19.50;58.02;100911.44;5079333;28;20931;-59
2022/04/30 01:05:57;;;;;;;2.43;1.13;;;;;;;19.49;57.89;100904.06;5071297;28;20457;-59
2022/04/30 01:08:24;;;;;;;1.73;1.10;;;;;;;19.49;57.60;100909.78;5071270;28;20227;-59
2022/04/30 01:10:49;;;;;;;2.43;1.40;;;;;;;19.50;58.14;100900.00;5071226;28;20427;-59
2022/04/30 01:13:15;;;;;;;2.20;1.40;;;;;;;19.48;57.72;100891.81;5053280;28;20418;-60
2022/04/30 01:15:40;;;;;;;2.17;1.20;;;;;;;19.49;57.67;100893.44;5071192;28;20172;-60
2022/04/30 01:18:10;;;;;;;4.47;1.70;;;;;;;19.48;57.82;100888.94;5087285;28;20174;-60
2022/04/30 01:20:36;;;;;;;2.07;1.40;;;;;;;19.49;57.99;100886.88;5084589;28;20546;-60
2022/04/30 01:23:02;;;;;;;2.90;1.80;;;;;;;19.48;57.72;100891.81;5053167;28;20433;-60
2022/04/30 01:25:31;;;;;;;1.80;1.10;;;;;;;19.48;57.42;100886.06;5053072;28;20211;-60
2022/04/30 01:27:58;;;;;;;2.70;1.70;;;;;;;19.49;58.03;100882.00;5085291;28;20421;-60
2022/04/30 01:30:24;;;;;;;2.43;1.30;;;;;;;19.47;57.63;100872.94;5073655;28;20454;-60
2022/04/30 01:38:20;;;;;;;2.27;1.20;;;;;;;19.48;57.59;100879.50;5069279;28;20424;-60
2022/04/30 01:40:46;;;;;;;2.10;1.10;;;;;;;19.48;57.68;100873.78;5068897;28;20437;-60
2022/04/30 01:43:12;;;;;;;2.80;1.40;;;;;;;19.48;57.67;100882.38;5069223;28;20425;-60
2022/04/30 01:45:37;;;;;;;2.90;1.53;;;;;;;19.47;57.96;100875.78;5034436;28;20467;-60
2022/04/30 01:48:03;;;;;;;1.90;1.13;;;;;;;19.49;57.85;100873.41;5088029;28;20667;-60
2022/04/30 01:50:29;;;;;;;2.77;1.50;;;;;;;19.48;57.62;100882.38;5091145;28;20194;-60
2022/04/30 01:52:54;;;;;;;2.20;1.20;;;;;;;19.49;57.66;100873.41;5087503;28;20783;-59
2022/04/30 01:55:20;;;;;;;3.53;1.50;;;;;;;19.49;57.75;100869.69;5090941;28;20174;-60
2022/04/30 01:57:45;;;;;;;3.83;1.33;;;;;;;19.48;57.71;100871.75;5091000;28;20547;-60
2022/04/30 02:00:13;;;;;;;1.90;1.20;;;;;;;19.49;57.99;100864.81;5075051;28;20516;-60
2022/04/30 02:02:40;;;;;;;2.97;1.50;;;;;;;19.48;57.70;100868.88;5094468;28;20246;-59
2022/04/30 02:05:07;;;;;;;2.77;1.30;;;;;;;19.47;57.68;100870.06;5094558;28;21108;-60
2022/04/30 02:07:37;;;;;;;2.30;1.30;;;;;;;19.48;57.49;100868.88;5094246;28;20469;-60
2022/04/30 02:10:03;;;;;;;3.30;1.43;;;;;;;19.48;57.69;100863.16;5077402;28;20546;-60
2022/04/30 02:12:31;;;;;;;2.10;1.10;;;;;;;19.48;57.81;100868.03;5059374;28;20499;-60
2022/04/30 02:14:56;;;;;;;2.80;1.80;;;;;;;19.48;57.74;100866.03;5092329;28;20177;-59
2022/04/30 02:17:22;;;;;;;3.10;1.30;;;;;;;19.48;57.92;100863.16;5076260;28;20499;-61
2022/04/30 02:22:31;;;;;;;2.77;1.47;;;;;;;19.48;57.80;100866.03;5064432;28;20538;-59
2022/04/30 02:25:00;;;;;;;2.77;1.20;;;;;;;19.48;57.82;100877.47;5094493;28;20547;-59
2022/04/30 02:27:25;;;;;;;2.70;1.20;;;;;;;19.48;57.79;100865.19;5093906;28;20174;-60
2022/04/30 02:29:51;;;;;;;3.13;1.30;;;;;;;19.46;57.85;100874.13;5071493;28;20420;-60
2022/04/30 02:32:17;;;;;;;2.43;1.10;;;;;;;19.47;57.76;100870.06;5092459;28;20182;-60
2022/04/30 02:34:42;;;;;;;2.13;1.43;;;;;;;19.46;57.72;100862.69;5092573;28;20590;-60
2022/04/30 02:37:14;;;;;;;2.00;1.30;;;;;;;19.47;57.76;100866.41;5092820;28;20193;-60
2022/04/30 02:39:42;;;;;;;3.07;1.27;;;;;;;19.46;57.63;100856.97;5092426;28;20159;-60
2022/04/30 02:42:08;;;;;;;5.77;1.90;;;;;;;19.46;57.68;100856.97;5092238;28;20491;-60
2022/04/30 02:44:34;;;;;;;2.30;1.40;;;;;;;19.48;57.72;100848.84;5093524;28;20479;-60
2022/04/30 02:47:00;;;;;;;1.80;1.30;;;;;;;19.47;57.68;100840.63;5093876;28;20204;-59
2022/04/30 02:49:25;;;;;;;2.30;1.20;;;;;;;19.47;57.59;100834.91;5093743;28;20200;-60
2022/04/30 02:51:50;;;;;;;2.93;1.60;;;;;;;19.47;57.72;100834.91;5093782;28;20551;-60
2022/04/30 02:54:16;;;;;;;4.33;1.63;;;;;;;19.47;57.65;100841.44;5093780;28;20163;-59
2022/04/30 02:56:42;;;;;;;2.13;1.20;;;;;;;19.47;57.98;100849.22;5093958;28;20201;-60
2022/04/30 03:01:52;;;;;;;2.00;1.23;;;;;;;19.48;57.70;100845.13;5090149;28;20642;-59
2022/04/30 03:04:17;;;;;;;2.10;1.20;;;;;;;19.48;57.71;100848.00;5090607;28;20444;-60
2022/04/30 03:06:46;;;;;;;2.27;1.27;;;;;;;19.45;57.85;100845.88;5091619;28;20178;-60
2022/04/30 03:09:11;;;;;;;2.30;1.40;;;;;;;19.46;57.74;100833.25;5091396;28;20254;-59
2022/04/30 03:11:37;;;;;;;3.63;1.60;;;;;;;19.46;57.90;100841.84;5090459;28;20493;-59
2022/04/30 03:14:02;;;;;;;2.20;1.33;;;;;;;19.46;57.89;100831.19;5091388;28;20175;-60
2022/04/30 03:21:55;;;;;;;2.10;1.40;;;;;;;19.46;57.71;100838.97;5079265;28;20489;-59
2022/04/30 03:24:21;;;;;;;2.83;1.33;;;;;;;19.45;57.81;100822.97;5093196;28;20456;-59
2022/04/30 03:26:48;;;;;;;1.87;1.20;;;;;;;19.45;57.90;100826.66;5091875;28;20545;-59
2022/04/30 03:29:15;;;;;;;2.90;1.27;;;;;;;19.47;57.85;100827.13;5090587;28;20190;-59
2022/04/30 03:31:41;;;;;;;1.97;1.27;;;;;;;19.45;57.65;100823.81;5093002;28;20421;-59
2022/04/30 03:34:09;;;;;;;2.10;1.27;;;;;;;19.46;57.76;100818.91;5092943;28;20416;-59
2022/04/30 03:36:35;;;;;;;2.27;1.47;;;;;;;19.48;58.05;100820.22;5092885;28;20193;-60
2022/04/30 03:39:01;;;;;;;2.53;1.50;;;;;;;19.45;57.91;100826.66;5092510;28;20503;-60
2022/04/30 03:41:26;;;;;;;3.53;1.43;;;;;;;19.45;57.78;100829.53;5092634;28;20181;-59
2022/04/30 03:43:52;;;;;;;2.30;1.33;;;;;;;19.45;57.66;100829.53;5092632;28;20178;-60
2022/04/30 03:46:17;;;;;;;3.10;1.27;;;;;;;19.45;57.95;100820.94;5092338;28;20205;-59
2022/04/30 03:48:43;;;;;;;2.10;1.07;;;;;;;19.46;57.96;100824.66;5089743;28;20515;-60
2022/04/30 03:51:09;;;;;;;2.23;1.30;;;;;;;19.46;57.74;100825.47;5084097;28;20300;-59
2022/04/30 03:53:34;;;;;;;2.50;1.33;;;;;;;19.45;57.81;100814.38;5092564;28;20684;-60
2022/04/30 03:56:00;;;;;;;2.13;1.30;;;;;;;19.43;57.75;100826.22;5092148;28;20174;-59
2022/04/30 03:58:26;;;;;;;3.20;1.57;;;;;;;19.44;58.04;100827.88;5091912;28;20174;-60
2022/04/30 04:00:53;;;;;;;2.47;1.10;;;;;;;19.45;57.66;100834.41;5090498;28;20424;-59
2022/04/30 04:03:19;;;;;;;3.37;1.53;;;;;;;19.45;58.06;100843.00;5090730;28;20243;-60
2022/04/30 04:05:46;;;;;;;2.37;1.20;;;;;;;19.45;57.71;100841.00;5090106;28;20447;-60
2022/04/30 04:08:14;;;;;;;1.80;1.10;;;;;;;19.45;57.76;100848.72;5089885;28;20563;-60
2022/04/30 04:10:41;;;;;;;2.33;1.50;;;;;;;19.45;57.85;100852.44;5072147;28;20440;-60
2022/04/30 04:18:34;;;;;;;3.03;1.60;;;;;;;19.45;58.23;100846.72;5071876;28;20415;-59
2022/04/30 04:21:00;;;;;;;2.67;1.27;;;;;;;19.45;57.97;100841.00;5082107;28;20515;-60
2022/04/30 04:23:25;;;;;;;2.13;1.20;;;;;;;19.44;58.05;100845.06;5092071;28;20185;-59
2022/04/30 04:26:00;;;;;;;2.60;1.93;;;;;;;19.44;57.90;100845.06;5088223;28;20267;-59
2022/04/30 04:28:29;;;;;;;2.37;1.50;;;;;;;19.45;57.99;100846.72;5092183;28;20162;-59
2022/04/30 04:30:54;;;;;;;2.20;1.30;;;;;;;19.45;57.87;100846.72;5091835;28;20773;-59
2022/04/30 04:33:20;;;;;;;2.10;1.30;;;;;;;19.44;57.98;100847.94;5091848;28;20519;-59
2022/04/30 04:35:45;;;;;;;3.43;1.53;;;;;;;19.46;57.71;100850.41;5091509;28;20194;-59
2022/04/30 04:38:11;;;;;;;2.03;1.37;;;;;;;19.45;57.69;100852.44;5073799;28;20174;-59
2022/04/30 04:40:36;;;;;;;1.90;1.20;;;;;;;19.44;57.76;100850.78;5091777;28;20185;-59
2022/04/30 04:43:02;;;;;;;3.17;1.40;;;;;;;19.45;57.84;100851.59;5092060;28;20170;-59
2022/04/30 04:45:28;;;;;;;2.00;1.30;;;;;;;19.44;57.72;100847.94;5091488;28;20202;-59
2022/04/30 04:47:54;;;;;;;2.53;1.30;;;;;;;19.45;57.76;100858.16;5091503;28;20193;-60
2022/04/30 04:50:19;;;;;;;3.20;1.57;;;;;;;19.45;57.97;100860.19;5091227;28;20428;-59
2022/04/30 04:52:45;;;;;;;2.43;1.30;;;;;;;19.46;57.67;100859.00;5056708;28;20629;-59
2022/04/30 04:55:10;;;;;;;2.27;1.30;;;;;;;19.45;57.59;100852.44;5091725;28;20257;-59
2022/04/30 04:57:36;;;;;;;2.40;1.40;;;;;;;19.45;57.64;100865.91;5091672;28;20171;-60
2022/04/30 05:00:03;;;;;;;2.57;1.60;;;;;;;19.44;58.00;100856.50;5070359;28;20170;-59
2022/04/30 05:02:29;;;;;;;2.63;1.57;;;;;;;19.44;57.70;100867.13;5091240;28;20185;-59
2022/04/30 05:04:54;;;;;;;3.73;1.67;;;;;;;19.44;58.02;100865.09;5091247;28;20456;-59
2022/04/30 05:07:20;;;;;;;3.90;1.70;;;;;;;19.44;57.99;100862.25;5091276;28;20241;-59
2022/04/30 05:09:45;;;;;;;2.37;1.40;;;;;;;19.44;58.01;100872.84;5091515;28;20170;-59
2022/04/30 05:12:11;;;;;;;2.27;1.13;;;;;;;19.45;58.03;100875.34;5091401;28;20292;-59
2022/04/30 05:14:37;;;;;;;2.50;1.43;;;;;;;19.45;58.04;100872.50;5091033;28;20174;-59
2022/04/30 05:17:03;;;;;;;2.27;1.27;;;;;;;19.45;57.70;100872.50;5089816;28;20204;-59
2022/04/30 05:19:29;;;;;;;1.80;1.10;;;;;;;19.45;57.87;100877.38;5091206;28;20294;-59
2022/04/30 05:21:54;;;;;;;2.30;1.37;;;;;;;19.45;57.67;100880.25;5073168;28;20958;-59
2022/04/30 05:24:20;;;;;;;2.33;0.90;;;;;;;19.45;57.96;100880.25;5074219;28;20199;-59
2022/04/30 05:26:47;;;;;;;1.97;1.10;;;;;;;19.44;57.83;100896.59;5091185;28;20861;-59
2022/04/30 05:29:15;;;;;;;2.10;1.20;;;;;;;19.45;57.84;100883.94;5091713;28;20587;-59
2022/04/30 05:31:41;;;;;;;2.07;1.30;;;;;;;19.44;57.76;100881.44;5091377;28;20408;-60
2022/04/30 05:34:06;;;;;;;1.90;1.30;;;;;;;19.46;57.67;100888.47;5091562;28;20436;-59
2022/04/30 05:36:32;;;;;;;1.90;1.10;;;;;;;19.45;57.89;100895.41;5094901;28;20189;-59
2022/04/30 05:38:59;;;;;;;2.63;1.40;;;;;;;19.45;57.79;100894.56;5077561;28;20179;-60
2022/04/30 05:41:24;;;;;;;2.10;1.33;;;;;;;19.44;57.53;100888.00;5074752;28;20202;-59
2022/04/30 05:43:50;;;;;;;2.47;1.30;;;;;;;19.47;57.46;100900.75;5074730;28;20994;-59
2022/04/30 05:46:15;;;;;;;2.07;1.43;;;;;;;19.46;57.58;100897.06;5074328;28;20203;-59
2022/04/30 05:48:41;;;;;;;1.60;1.00;;;;;;;19.45;57.70;100904.00;5074787;28;20187;-59
2022/04/30 05:51:06;;;;;;;2.03;1.10;;;;;;;19.47;57.63;100900.75;5085752;28;20185;-60
2022/04/30 05:53:32;;;;;;;2.20;1.33;;;;;;;19.47;57.94;100912.22;5094443;28;20174;-59
2022/04/30 05:55:57;;;;;;;2.33;1.23;;;;;;;19.45;58.05;100908.88;5092879;28;20227;-59
2022/04/30 05:58:23;;;;;;;2.67;1.40;;;;;;;19.44;57.73;100916.66;5076402;28;20631;-59
2022/04/30 06:00:48;;;;;;;2.07;1.40;;;;;;;19.45;57.83;100909.72;5074155;28;20226;-59
2022/04/30 06:03:13;;;;;;;3.30;1.47;;;;;;;19.45;57.91;100914.59;5074222;28;20182;-59
2022/04/30 06:05:39;;;;;;;1.80;1.00;;;;;;;19.46;58.05;100919.97;5074393;28;20214;-59
2022/04/30 06:08:05;;;;;;;2.50;1.20;;;;;;;19.44;57.70;100913.78;5074221;28;20702;-59
2022/04/30 06:10:31;;;;;;;2.30;1.50;;;;;;;19.46;57.63;100925.69;5074287;28;20187;-59
2022/04/30 06:12:57;;;;;;;2.57;1.20;;;;;;;19.45;57.91;100928.91;5074092;28;20436;-60
2022/04/30 06:15:22;;;;;;;2.90;1.20;;;;;;;19.44;57.79;100922.38;5076931;28;20177;-59
2022/04/30 06:17:48;;;;;;;2.20;1.20;;;;;;;19.46;57.68;100933.47;5094099;28;20255;-60
2022/04/30 06:20:13;;;;;;;1.83;1.30;;;;;;;19.45;57.60;100926.06;5090185;28;20186;-59
2022/04/30 06:22:38;;;;;;;2.20;1.33;;;;;;;19.46;57.80;100930.59;5083890;28;20178;-59
2022/04/30 06:25:05;;;;;;;2.37;1.30;;;;;;;19.46;57.54;100930.59;5092513;28;20237;-60
2022/04/30 06:27:30;;;;;;;3.80;1.50;;;;;;;19.45;57.59;100937.50;5092204;28;20174;-59
2022/04/30 06:29:55;;;;;;;2.47;1.27;;;;;;;19.45;57.67;100935.50;5092664;28;20413;-59
2022/04/30 06:32:21;;;;;;;2.07;1.30;;;;;;;19.46;57.69;100934.28;5093687;28;20824;-60
2022/04/30 06:34:46;;;;;;;2.10;1.30;;;;;;;19.44;58.04;100942.44;5094165;28;20167;-59
2022/04/30 06:37:12;;;;;;;3.30;1.30;;;;;;;19.45;57.75;100941.22;5093910;28;20170;-59
2022/04/30 06:39:37;;;;;;;2.70;1.30;;;;;;;19.45;57.86;100944.09;5093934;28;20181;-59
2022/04/30 06:42:03;;;;;;;2.23;1.40;;;;;;;19.47;57.72;100944.53;5093591;28;20182;-60
2022/04/30 06:44:28;;;;;;;2.40;1.10;;;;;;;19.46;57.89;100942.88;5093903;28;20190;-59
2022/04/30 06:46:54;;;;;;;1.90;1.30;;;;;;;19.46;57.77;100947.78;5092193;28;20190;-59
2022/04/30 06:49:21;;;;;;;2.10;1.20;;;;;;;19.46;57.70;100953.50;5093820;28;20271;-59
2022/04/30 06:51:48;;;;;;;2.40;1.33;;;;;;;19.45;57.64;100946.94;5093458;28;20261;-59
2022/04/30 06:57:17;;;;;;;1.90;1.20;;;;;;;19.47;57.67;100955.16;5093466;28;20409;-59
2022/04/30 06:59:44;;;;;;;1.93;1.13;;;;;;;19.45;57.71;100951.81;5093414;28;20403;-59
2022/04/30 07:02:21;;;;;;;2.07;1.30;;;;;;;19.44;57.85;100958.75;5093515;28;20900;-60
2022/04/30 07:04:50;;;;;;;2.63;1.27;;;;;;;19.44;57.65;100959.59;5093601;28;20527;-59
2022/04/30 07:07:16;;;;;;;2.40;1.33;;;;;;;19.45;57.78;100967.00;5090221;28;20460;-59
2022/04/30 07:09:41;;;;;;;2.20;1.30;;;;;;;19.46;57.65;100968.66;5093011;28;20907;-59
2022/04/30 07:12:09;;;;;;;5.30;1.43;;;;;;;19.45;57.60;100966.16;5093400;28;20189;-60
2022/04/30 07:14:36;;;;;;;1.87;1.13;;;;;;;19.44;57.63;100965.34;5093509;28;20159;-59
2022/04/30 07:17:05;;;;;;;1.90;1.20;;;;;;;19.47;57.78;100966.63;5088996;28;20783;-59
2022/04/30 07:19:30;;;;;;;1.73;1.00;;;;;;;19.46;57.74;100967.84;5055007;28;20413;-60
2022/04/30 07:22:00;;;;;;;2.83;1.50;;;;;;;19.44;57.72;100968.19;5090798;28;20937;-60
2022/04/30 07:24:26;;;;;;;2.10;1.33;;;;;;;19.45;57.77;100972.72;5093454;28;20204;-60
2022/04/30 07:26:52;;;;;;;1.97;1.17;;;;;;;19.45;57.60;100966.16;5075084;28;20414;-60
2022/04/30 07:29:17;;;;;;;2.60;1.43;;;;;;;19.46;57.59;100970.69;5093001;28;20417;-60
2022/04/30 07:31:43;;;;;;;2.40;1.30;;;;;;;19.46;57.68;100973.56;5093009;28;20177;-60
2022/04/30 07:34:09;;;;;;;2.07;1.20;;;;;;;19.45;57.86;100978.44;5092988;28;20170;-59
2022/04/30 07:36:36;;;;;;;2.70;1.50;;;;;;;19.44;57.77;100982.50;5078068;28;20180;-60
2022/04/30 07:39:01;;;;;;;2.20;1.30;;;;;;;19.44;58.15;100985.38;5054700;28;20402;-60
2022/04/30 07:41:27;;;;;;;2.50;1.40;;;;;;;19.44;57.82;100982.50;5072477;28;20413;-60
2022/04/30 07:43:52;;;;;;;2.30;1.43;;;;;;;19.45;57.81;100981.31;5072562;28;20167;-59
2022/04/30 07:46:18;;;;;;;2.63;1.23;;;;;;;19.43;57.89;100978.00;5071959;28;20621;-59
2022/04/30 07:48:43;;;;;;;2.50;1.30;;;;;;;19.44;57.80;100982.50;5072375;28;20239;-59
2022/04/30 07:51:18;;;;;;;2.47;1.20;;;;;;;19.45;57.66;100981.31;5084000;28;20175;-60
2022/04/30 07:53:44;;;;;;;2.60;1.50;;;;;;;19.44;57.67;100987.41;5089278;28;20177;-60
2022/04/30 07:56:10;;;;;;;1.80;1.20;;;;;;;19.45;58.19;100992.75;5092230;28;20888;-59
2022/04/30 07:58:36;;;;;;;1.80;1.03;;;;;;;19.45;57.72;100989.91;5091668;28;20462;-59
2022/04/30 08:01:02;;;;;;;2.83;1.30;;;;;;;19.45;57.65;100992.75;5092256;28;20197;-59
2022/04/30 08:03:27;;;;;;;2.33;1.23;;;;;;;19.46;57.69;100982.16;5092451;28;20421;-59
2022/04/30 08:05:52;;;;;;;2.17;1.30;;;;;;;19.45;57.71;100987.03;5092300;28;20194;-59
2022/04/30 08:08:18;;;;;;;1.80;1.20;;;;;;;19.46;57.74;100988.69;5091999;28;20222;-59
2022/04/30 08:10:45;;;;;;;2.20;1.20;;;;;;;19.45;57.60;100992.75;5092287;28;20171;-60
2022/04/30 08:13:11;;;;;;;3.40;1.30;;;;;;;19.46;57.66;100997.28;5092212;28;20170;-60
2022/04/30 08:15:42;;;;;;;1.97;1.27;;;;;;;19.46;57.69;100990.75;5091699;28;20416;-60
2022/04/30 08:18:08;;;;;;;3.47;1.60;;;;;;;19.45;57.64;100992.75;5085313;28;20683;-60
2022/04/30 08:20:34;;;;;;;2.13;1.33;;;;;;;19.46;57.71;100987.88;5078845;28;20416;-60
2022/04/30 08:22:59;;;;;;;2.20;1.10;;;;;;;19.47;57.46;100986.66;5091897;28;20515;-60
2022/04/30 08:25:25;;;;;;;1.77;1.13;;;;;;;19.47;57.69;100993.22;5073739;28;20198;-59
2022/04/30 08:27:50;;;;;;;2.37;1.20;;;;;;;19.46;57.73;100994.41;5091721;28;20190;-59
2022/04/30 08:30:15;;;;;;;1.83;1.27;;;;;;;19.46;57.78;100994.41;5091931;28;20181;-60
2022/04/30 08:32:41;;;;;;;1.87;1.07;;;;;;;19.46;57.64;101000.16;5091896;28;20171;-60
2022/04/30 08:35:07;;;;;;;2.43;1.43;;;;;;;19.46;57.64;100997.28;5091989;28;20246;-60
2022/04/30 08:37:32;;;;;;;1.97;1.20;;;;;;;19.46;57.92;100991.56;5091652;28;20178;-59
2022/04/30 08:39:58;;;;;;;2.10;1.50;;;;;;;19.45;57.85;100995.63;5091893;28;20169;-60
2022/04/30 08:42:23;;;;;;;2.40;1.23;;;;;;;19.46;57.45;100994.41;5091582;28;20170;-60
2022/04/30 08:44:49;;;;;;;2.13;1.40;;;;;;;19.45;57.84;100997.66;5091599;28;20183;-60
2022/04/30 08:47:14;;;;;;;2.10;1.23;;;;;;;19.46;57.50;100999.34;5091388;28;20186;-60
2022/04/30 08:49:41;;;;;;;2.37;1.17;;;;;;;19.44;57.71;100993.97;5091871;28;20219;-60
2022/04/30 08:52:07;;;;;;;2.13;1.30;;;;;;;19.45;57.69;100992.75;5091046;28;20186;-60
2022/04/30 08:54:32;;;;;;;2.03;1.40;;;;;;;19.45;57.85;100992.75;5091779;28;20415;-59
2022/04/30 08:56:58;;;;;;;1.70;1.03;;;;;;;19.43;57.67;100988.59;5091458;28;20420;-60
2022/04/30 08:59:23;;;;;;;2.10;1.10;;;;;;;19.44;57.51;100993.13;5091513;28;20171;-60
2022/04/30 09:01:51;;;;;;;1.90;1.10;;;;;;;19.43;57.75;101000.91;5091452;28;20198;-60
2022/04/30 09:04:16;;;;;;;3.13;1.30;;;;;;;19.43;57.62;101000.91;5076922;28;20721;-59
2022/04/30 09:06:46;;;;;;;2.20;1.10;;;;;;;19.44;57.78;100996.84;5071344;28;20537;-60
2022/04/30 09:09:12;;;;;;;2.33;1.30;;;;;;;19.43;57.91;100995.19;5071932;28;20260;-59
2022/04/30 09:11:39;;;;;;;2.47;1.10;;;;;;;19.42;57.77;101002.09;5075254;28;20417;-60
2022/04/30 09:14:04;;;;;;;1.80;1.03;;;;;;;19.42;57.77;100995.53;5075308;28;20440;-60
2022/04/30 09:16:30;;;;;;;1.90;1.20;;;;;;;19.43;57.61;100998.03;5082277;28;20416;-60
2022/04/30 09:19:01;;;;;;;2.33;1.30;;;;;;;19.42;57.83;100996.34;5095571;28;20174;-59
2022/04/30 09:21:27;;;;;;;2.13;1.40;;;;;;;19.43;57.69;100997.19;5091438;28;20174;-60
2022/04/30 09:24:02;;;;;;;1.80;1.10;;;;;;;19.44;57.57;100993.97;5095333;28;20454;-59
2022/04/30 09:26:38;;;;;;;2.37;1.47;;;;;;;19.43;57.73;100992.31;5077326;28;20205;-60
2022/04/30 09:29:18;;;;;;;2.87;1.40;;;;;;;19.43;57.75;100989.44;5095327;28;20422;-60
2022/04/30 09:31:48;;;;;;;2.27;1.30;;;;;;;19.44;57.60;100993.13;5078635;28;20401;-60
2022/04/30 09:39:41;;;;;;;2.60;1.30;;;;;;;19.44;57.73;100993.97;5095350;28;20415;-60
2022/04/30 09:42:07;;;;;;;2.37;1.20;;;;;;;19.44;57.86;100999.69;5076632;28;20412;-60
2022/04/30 09:44:36;;;;;;;2.17;1.40;;;;;;;19.43;57.71;100998.03;5095120;28;20210;-59
2022/04/30 09:47:01;;;;;;;2.00;1.30;;;;;;;19.44;57.60;100993.97;5094971;28;20217;-60
2022/04/30 09:54:54;;;;;;;2.77;1.40;;;;;;;19.42;57.69;100990.63;5077293;28;20408;-60
2022/04/30 09:57:20;;;;;;;2.77;1.30;;;;;;;19.42;57.81;100993.50;5074502;28;20777;-60
2022/04/30 09:59:46;;;;;;;2.10;1.40;;;;;;;19.42;57.64;100984.91;5056437;28;20171;-61
2022/04/30 10:02:12;;;;;;;2.03;1.30;;;;;;;19.44;57.99;100985.38;5091035;28;20182;-59
2022/04/30 10:04:38;;;;;;;2.20;1.23;;;;;;;19.44;57.62;100993.97;5060120;28;20464;-59
2022/04/30 10:07:04;;;;;;;2.23;1.60;;;;;;;19.43;57.40;100988.59;5093887;28;20935;-60
2022/04/30 10:09:42;;;;;;;1.77;0.97;;;;;;;19.45;58.17;100983.31;5094629;28;20173;-60
2022/04/30 10:12:31;;;;;;;1.97;1.30;;;;;;;19.43;57.70;100980.84;5076635;28;20517;-60
2022/04/30 10:14:59;;;;;;;2.10;1.20;;;;;;;19.44;57.70;100981.66;5077400;28;20397;-59
2022/04/30 10:17:26;;;;;;;2.07;1.30;;;;;;;19.45;57.70;100989.06;5093857;28;20469;-59
2022/04/30 10:20:12;;;;;;;1.90;1.20;;;;;;;19.44;57.71;100982.50;5091101;28;20473;-59
2022/04/30 10:22:51;;;;;;;1.80;1.27;;;;;;;19.45;57.64;100978.44;5094490;28;20404;-59
2022/04/30 10:25:17;;;;;;;2.03;1.30;;;;;;;19.45;57.58;100977.59;5094403;28;20458;-60
2022/04/30 10:27:46;;;;;;;2.00;1.40;;;;;;;19.45;57.99;100981.31;5094101;28;20416;-59
2022/04/30 10:30:27;;;;;;;4.87;1.00;;;;;;;19.45;57.92;100972.72;5094242;28;20227;-59
2022/04/30 10:33:00;;;;;;;2.73;1.40;;;;;;;19.46;57.56;100977.22;5094057;28;20488;-60
2022/04/30 10:35:36;;;;;;;4.50;2.23;;;;;;;19.47;57.29;100973.16;5094234;28;20766;-60
2022/04/30 10:38:21;;;;;;;3.07;2.10;;;;;;;19.46;57.21;100967.84;5093919;28;20438;-59
2022/04/30 10:44:00;;;;;;;3.23;2.37;;;;;;;19.47;56.39;100967.44;5012976;28;20475;-59
2022/04/30 10:46:26;;;;;;;5.40;2.57;;;;;;;19.47;56.69;100960.91;5017364;28;20462;-60
2022/04/30 10:48:51;;;;;;;3.13;2.43;;;;;;;19.46;56.76;100965.78;5029791;28;20836;-59
2022/04/30 10:51:31;;;;;;;3.90;2.80;;;;;;;19.48;56.73;100960.53;5031250;28;20184;-60
2022/04/30 10:53:56;;;;;;;7.30;2.70;;;;;;;19.47;56.61;100961.72;5029384;28;20184;-60
2022/04/30 10:56:21;;;;;;;3.60;2.50;;;;;;;19.45;56.88;100961.25;5010250;28;20550;-60
2022/04/30 10:58:48;;;;;;;5.60;2.70;;;;;;;19.43;56.96;100966.53;5012870;28;20196;-60
2022/04/30 11:01:19;;;;;;;4.33;2.30;;;;;;;19.44;57.41;100961.63;5028789;28;20264;-60
2022/04/30 11:03:46;;;;;;;2.93;2.10;;;;;;;19.43;57.04;100962.84;5028778;28;20513;-60
2022/04/30 11:06:16;;;;;;;2.53;2.07;;;;;;;19.41;57.04;100954.59;5028635;28;20469;-60
2022/04/30 11:08:42;;;;;;;3.03;2.13;;;;;;;19.42;56.98;100947.66;5028116;28;20475;-60
2022/04/30 11:11:08;;;;;;;3.70;2.27;;;;;;;19.41;57.13;100960.34;5028908;28;20505;-60
2022/04/30 11:13:33;;;;;;;4.43;2.97;;;;;;;19.41;57.11;100959.53;5032070;28;20165;-60
2022/04/30 11:15:59;;;;;;;3.00;1.83;;;;;;;19.41;56.95;100954.59;5055409;28;20408;-60
2022/04/30 11:18:24;;;;;;;3.43;2.03;;;;;;;19.42;57.15;100955.44;5091973;28;20181;-60
2022/04/30 11:20:58;;;;;;;3.20;1.80;;;;;;;19.42;57.20;100956.25;5084034;28;20178;-61
2022/04/30 11:23:23;;;;;;;3.37;1.93;;;;;;;19.40;57.34;100952.94;5073096;28;20179;-60
2022/04/30 11:25:48;;;;;;;3.00;2.00;;;;;;;19.42;57.19;100944.81;5079580;28;20451;-60
2022/04/30 11:28:14;;;;;;;4.17;2.03;;;;;;;19.41;57.24;100946.03;5073698;28;20171;-60
2022/04/30 11:30:41;;;;;;;3.33;1.90;;;;;;;19.41;57.19;100948.88;5074665;28;20175;-60
2022/04/30 11:33:07;;;;;;;2.73;1.90;;;;;;;19.40;57.24;100950.09;5072207;28;20259;-61
2022/04/30 11:35:32;;;;;;;3.23;2.00;;;;;;;19.42;57.23;100952.59;5072525;28;20496;-60
2022/04/30 11:37:57;;;;;;;3.27;1.90;;;;;;;19.42;57.37;100946.88;5072554;28;20175;-60
2022/04/30 11:40:24;;;;;;;6.00;2.00;;;;;;;19.41;57.40;100948.06;5072656;28;20175;-60
2022/04/30 11:42:59;;;;;;;3.17;1.70;;;;;;;19.42;57.44;100941.94;5072174;28;20191;-60
2022/04/30 11:45:34;;;;;;;2.50;1.93;;;;;;;19.44;57.18;100950.16;5071003;28;20827;-60
2022/04/30 11:47:59;;;;;;;3.60;1.80;;;;;;;19.43;57.27;100952.22;5072329;28;20397;-61
2022/04/30 11:50:26;;;;;;;77.10;6.20;;;;;;;19.44;57.38;100942.44;5077991;28;20423;-61
2022/04/30 11:52:51;;;;;;;148.53;9.83;;;;;;;19.47;57.24;100946.56;5074540;28;20166;-61
2022/04/30 11:55:17;;;;;;;68.47;7.00;;;;;;;19.42;57.33;100941.94;5092455;28;20450;-61
2022/04/30 11:57:43;;;;;;;59.87;6.70;;;;;;;19.43;56.85;100949.38;5092140;28;20249;-60
2022/04/30 12:00:10;;;;;;;83.30;7.53;;;;;;;19.41;57.42;100945.22;5092553;28;20538;-60